Time;durP1;ratioP1;P1;durP2;ratioP2;P2;SDS_P1;SDS_P2;PMS_P1;PMS_P2;Temp;Humidity;BMP_temperature;BMP_pressure;BME280_temperature;BME280_humidity;BME280_pressure;Samples;Min_cycle;Max_cycle;Signal;HPM_P1;HPM_P2
2021/12/21 00:00:13;;;;;;;25.63;9.02;;;2.60;99.90;;;;;;5081377;28;20116;-76
2021/12/21 00:02:45;;;;;;;24.05;9.43;;;2.60;99.90;;;;;;5085588;28;20028;-76
2021/12/21 00:05:16;;;;;;;24.25;8.93;;;2.60;99.90;;;;;;5084966;28;20028;-76
2021/12/21 00:07:43;;;;;;;24.10;8.13;;;2.50;99.90;;;;;;5081278;28;20106;-77
2021/12/21 00:10:10;;;;;;;24.50;9.63;;;2.50;99.90;;;;;;5081977;28;20043;-77
2021/12/21 00:12:38;;;;;;;23.63;9.57;;;2.50;99.90;;;;;;5085517;28;20433;-76
2021/12/21 00:15:18;;;;;;;27.70;9.40;;;2.50;99.90;;;;;;5082551;28;20030;-77
2021/12/21 00:17:54;;;;;;;26.95;9.23;;;2.50;99.90;;;;;;5089090;28;20020;-77
2021/12/21 00:25:21;;;;;;;23.87;9.47;;;2.30;99.90;;;;;;5086401;28;20477;-76
2021/12/21 00:27:50;;;;;;;21.33;8.10;;;2.40;99.90;;;;;;5086261;28;20395;-77
2021/12/21 00:30:16;;;;;;;24.33;8.38;;;2.30;99.90;;;;;;5084455;28;20072;-77
2021/12/21 00:32:42;;;;;;;24.33;8.77;;;2.30;99.90;;;;;;5080379;28;20154;-77
2021/12/21 00:35:08;;;;;;;26.42;8.57;;;2.30;99.90;;;;;;5081165;28;20032;-77
2021/12/21 00:37:34;;;;;;;19.77;8.75;;;2.30;99.90;;;;;;5081230;28;20660;-77
2021/12/21 00:39:59;;;;;;;27.58;9.13;;;2.20;99.90;;;;;;5081249;28;20031;-76
2021/12/21 00:42:25;;;;;;;30.00;9.85;;;2.30;99.90;;;;;;5078570;28;20056;-76
2021/12/21 00:44:51;;;;;;;21.60;9.63;;;2.30;99.90;;;;;;5082270;28;20056;-76
2021/12/21 00:47:17;;;;;;;21.67;10.30;;;2.30;99.90;;;;;;5082469;28;20024;-77
2021/12/21 00:49:57;;;;;;;23.00;10.50;;;2.20;99.90;;;;;;5078257;28;20385;-76
2021/12/21 00:52:23;;;;;;;23.83;10.48;;;2.20;99.90;;;;;;5080092;28;20483;-76
2021/12/21 00:54:49;;;;;;;29.52;9.80;;;2.20;99.90;;;;;;5080828;28;20055;-76
2021/12/21 00:57:15;;;;;;;26.35;10.32;;;2.20;99.90;;;;;;5079583;28;20032;-76
2021/12/21 00:59:40;;;;;;;25.35;9.95;;;2.20;99.90;;;;;;5079251;28;20027;-76
2021/12/21 01:02:06;;;;;;;23.70;9.60;;;2.20;99.90;;;;;;5080773;28;20036;-77
2021/12/21 01:04:38;;;;;;;21.98;9.20;;;2.20;99.90;;;;;;5080445;28;20101;-77
2021/12/21 01:07:18;;;;;;;20.20;9.63;;;2.10;99.90;;;;;;5084225;28;20017;-77
2021/12/21 01:12:14;;;;;;;20.63;9.00;;;2.10;99.90;;;;;;5083590;28;20067;-77
2021/12/21 01:17:17;;;;;;;19.90;9.40;;;2.10;99.90;;;;;;5085448;28;20039;-77
2021/12/21 01:19:48;;;;;;;22.70;10.45;;;2.00;99.90;;;;;;5089695;28;20016;-76
2021/12/21 01:22:23;;;;;;;25.58;9.43;;;2.00;99.90;;;;;;5081678;28;20024;-76
2021/12/21 01:30:06;;;;;;;22.73;10.23;;;2.00;99.90;;;;;;5081597;28;20560;-77
2021/12/21 01:35:40;;;;;;;18.38;8.63;;;2.00;99.90;;;;;;5082274;28;20116;-76
2021/12/21 01:41:25;;;;;;;21.95;9.70;;;2.00;99.90;;;;;;5026496;28;20120;-77
2021/12/21 01:49:38;;;;;;;19.42;9.43;;;1.90;99.90;;;;;;5082191;28;20056;-76
2021/12/21 01:52:10;;;;;;;22.95;8.60;;;1.80;99.90;;;;;;5083984;28;20372;-77
2021/12/21 01:54:36;;;;;;;16.88;8.85;;;1.80;99.90;;;;;;5081630;28;20046;-77
2021/12/21 01:57:03;;;;;;;21.67;8.63;;;1.80;99.90;;;;;;5085365;28;20369;-77
2021/12/21 01:59:29;;;;;;;20.70;9.60;;;1.80;99.90;;;;;;5086254;28;20494;-76
2021/12/21 02:01:55;;;;;;;25.10;10.05;;;1.70;99.90;;;;;;5083973;28;20028;-77
2021/12/21 02:04:21;;;;;;;27.30;9.80;;;1.70;99.90;;;;;;5081622;28;20464;-76
2021/12/21 02:06:49;;;;;;;25.15;9.52;;;1.70;99.90;;;;;;5083117;28;20153;-77
2021/12/21 02:09:16;;;;;;;20.63;9.73;;;1.70;99.90;;;;;;5090371;28;20023;-77
2021/12/21 02:11:42;;;;;;;23.45;9.13;;;1.70;99.90;;;;;;5080279;28;20032;-77
2021/12/21 02:14:10;;;;;;;21.98;8.43;;;1.70;99.90;;;;;;5081468;28;20025;-77
2021/12/21 02:19:39;;;;;;;27.42;8.15;;;1.60;99.90;;;;;;5064541;28;20123;-77
2021/12/21 02:22:15;;;;;;;24.92;9.75;;;1.60;99.90;;;;;;5082744;28;20584;-77
2021/12/21 02:24:56;;;;;;;22.67;9.10;;;1.60;99.90;;;;;;5077300;28;20021;-77
2021/12/21 02:27:30;;;;;;;24.75;8.77;;;1.60;99.90;;;;;;5080705;28;20171;-77
2021/12/21 02:29:55;;;;;;;22.33;8.25;;;1.60;99.90;;;;;;5079636;28;20047;-76
2021/12/21 02:32:22;;;;;;;23.13;7.85;;;1.60;99.90;;;;;;5083464;28;20032;-77
2021/12/21 02:34:49;;;;;;;18.15;7.65;;;1.60;99.90;;;;;;5078733;28;20029;-76
2021/12/21 02:37:15;;;;;;;18.65;8.68;;;1.60;99.90;;;;;;5078267;28;20464;-76
2021/12/21 02:39:41;;;;;;;20.08;9.40;;;1.70;99.90;;;;;;5084533;28;20107;-76
2021/12/21 02:42:07;;;;;;;25.92;9.50;;;1.60;99.90;;;;;;5083815;28;20432;-76
2021/12/21 02:44:34;;;;;;;24.10;8.52;;;1.60;99.90;;;;;;5092123;28;20028;-77
2021/12/21 02:46:59;;;;;;;24.73;9.30;;;1.50;99.90;;;;;;5083378;28;20154;-76
2021/12/21 02:49:25;;;;;;;21.67;8.13;;;1.50;99.90;;;;;;5085840;28;20119;-77
2021/12/21 02:51:51;;;;;;;21.38;8.73;;;1.50;99.90;;;;;;5078934;28;20035;-76
2021/12/21 02:54:19;;;;;;;32.70;9.10;;;1.40;99.90;;;;;;5082726;28;20041;-76
2021/12/21 02:56:45;;;;;;;31.20;9.38;;;1.40;99.90;;;;;;5078405;28;20464;-76
2021/12/21 02:59:11;;;;;;;19.55;8.60;;;1.40;99.90;;;;;;5082367;28;20028;-77
2021/12/21 03:01:38;;;;;;;22.15;8.43;;;1.40;99.90;;;;;;5081338;28;20422;-76
2021/12/21 03:04:05;;;;;;;21.13;8.15;;;1.40;99.90;;;;;;5082574;28;20114;-76
2021/12/21 03:09:25;;;;;;;20.17;8.20;;;1.30;99.90;;;;;;5084252;28;20036;-76
2021/12/21 03:12:09;;;;;;;23.92;8.18;;;1.30;99.90;;;;;;5082619;28;20032;-76
2021/12/21 03:14:54;;;;;;;22.52;7.70;;;1.30;99.90;;;;;;5082498;28;20029;-76
2021/12/21 03:17:21;;;;;;;20.05;8.35;;;1.30;99.90;;;;;;5084453;28;20533;-76
2021/12/21 03:19:46;;;;;;;26.75;8.82;;;1.20;99.90;;;;;;5082788;28;20107;-76
2021/12/21 03:22:12;;;;;;;18.60;7.45;;;1.30;99.90;;;;;;5083421;28;20137;-76
2021/12/21 03:24:41;;;;;;;21.00;8.02;;;1.30;99.90;;;;;;5085465;28;20032;-76
2021/12/21 03:27:07;;;;;;;19.38;7.63;;;1.20;99.90;;;;;;5082994;28;20028;-76
2021/12/21 03:29:32;;;;;;;23.95;8.45;;;1.20;99.90;;;;;;5087880;28;20098;-76
2021/12/21 03:31:58;;;;;;;17.48;7.68;;;1.20;99.90;;;;;;5082030;28;20469;-77
2021/12/21 03:34:24;;;;;;;22.17;8.13;;;1.20;99.90;;;;;;5085235;28;20115;-76
2021/12/21 03:36:50;;;;;;;28.73;9.02;;;1.10;99.90;;;;;;5084778;28;20048;-76
2021/12/21 03:39:19;;;;;;;21.90;8.90;;;1.10;99.90;;;;;;5085372;28;20043;-75
2021/12/21 03:41:48;;;;;;;23.35;9.20;;;1.10;99.90;;;;;;5080060;28;20495;-78
2021/12/21 03:44:16;;;;;;;24.63;9.18;;;1.10;99.90;;;;;;5082012;28;20354;-80
2021/12/21 03:46:50;;;;;;;23.40;8.98;;;1.00;99.90;;;;;;5083719;28;20108;-75
2021/12/21 03:52:09;;;;;;;24.63;9.35;;;1.00;99.90;;;;;;5083527;28;20032;-75
2021/12/21 03:54:38;;;;;;;21.73;8.85;;;1.00;99.90;;;;;;5086884;28;20028;-78
2021/12/21 03:57:04;;;;;;;21.98;8.80;;;1.00;99.90;;;;;;5082522;28;20484;-77
2021/12/21 03:59:30;;;;;;;20.73;9.38;;;1.10;99.90;;;;;;5081568;28;20020;-78
2021/12/21 04:01:56;;;;;;;26.52;9.80;;;1.10;99.90;;;;;;5080280;28;20071;-77
2021/12/21 04:04:23;;;;;;;24.15;8.43;;;1.00;99.90;;;;;;5085628;28;20082;-77
2021/12/21 04:06:49;;;;;;;16.45;7.55;;;1.00;99.90;;;;;;5084102;28;20033;-77
2021/12/21 04:09:15;;;;;;;23.70;8.30;;;1.00;99.90;;;;;;5082567;28;20127;-77
2021/12/21 04:11:41;;;;;;;21.08;8.93;;;1.00;99.90;;;;;;5085835;28;20025;-77
2021/12/21 04:14:07;;;;;;;22.42;8.77;;;1.00;99.90;;;;;;5084325;28;20073;-78
2021/12/21 04:16:33;;;;;;;26.35;8.73;;;0.90;99.90;;;;;;5082425;28;20020;-75
2021/12/21 04:18:59;;;;;;;24.10;8.70;;;0.90;99.90;;;;;;5083082;28;20024;-75
2021/12/21 04:21:25;;;;;;;19.70;8.45;;;0.90;99.90;;;;;;5084495;28;20027;-76
2021/12/21 04:23:50;;;;;;;21.55;7.35;;;0.90;99.90;;;;;;5082116;28;20158;-76
2021/12/21 04:26:17;;;;;;;31.35;9.70;;;0.90;99.90;;;;;;5083501;28;20028;-75
2021/12/21 04:28:43;;;;;;;18.77;8.10;;;0.90;99.90;;;;;;5088709;28;20377;-77
2021/12/21 04:31:10;;;;;;;27.02;8.35;;;0.80;99.90;;;;;;5076816;28;20048;-76
2021/12/21 04:33:37;;;;;;;19.42;8.57;;;0.80;99.90;;;;;;5082995;28;20391;-78
2021/12/21 04:36:04;;;;;;;23.70;8.30;;;0.80;99.90;;;;;;5083441;28;20058;-78
2021/12/21 04:38:35;;;;;;;21.58;8.20;;;0.80;99.90;;;;;;5083091;28;20028;-77
2021/12/21 04:41:14;;;;;;;22.50;7.38;;;0.70;99.90;;;;;;5080556;28;20024;-81
2021/12/21 04:43:41;;;;;;;22.52;8.07;;;0.70;99.90;;;;;;5076656;28;20032;-81
2021/12/21 04:46:06;;;;;;;28.52;9.13;;;0.70;99.90;;;;;;5088282;28;20652;-81
2021/12/21 04:48:33;;;;;;;26.85;8.73;;;0.60;99.90;;;;;;5080266;28;20094;-79
2021/12/21 04:50:59;;;;;;;21.80;9.45;;;0.70;99.90;;;;;;5084373;28;20020;-80
2021/12/21 04:53:25;;;;;;;27.13;9.25;;;0.70;99.90;;;;;;5079929;28;20031;-80
2021/12/21 04:55:51;;;;;;;24.25;8.68;;;0.70;99.90;;;;;;5084953;28;20032;-81
2021/12/21 04:58:17;;;;;;;21.85;9.10;;;0.70;99.90;;;;;;5081316;28;20025;-80
2021/12/21 05:00:43;;;;;;;22.15;8.25;;;0.70;99.90;;;;;;5079330;28;20441;-80
2021/12/21 05:03:09;;;;;;;25.10;9.07;;;0.60;99.90;;;;;;5082207;28;20063;-80
2021/12/21 05:05:35;;;;;;;22.27;7.65;;;0.60;99.90;;;;;;5083250;28;20032;-80
2021/12/21 05:08:23;;;;;;;20.13;7.68;;;0.60;99.90;;;;;;5080747;28;20461;-80
2021/12/21 05:10:52;;;;;;;21.50;8.05;;;0.50;99.90;;;;;;5079960;28;20063;-79
2021/12/21 05:13:21;;;;;;;23.50;8.20;;;0.50;99.90;;;;;;5088145;28;20155;-80
2021/12/21 05:15:47;;;;;;;24.88;8.43;;;0.50;99.90;;;;;;5083355;28;20020;-79
2021/12/21 05:18:14;;;;;;;22.02;7.85;;;0.60;99.90;;;;;;5081072;28;20035;-79
2021/12/21 05:20:40;;;;;;;21.38;8.32;;;0.50;99.90;;;;;;5083233;28;20488;-79
2021/12/21 05:23:07;;;;;;;22.33;7.88;;;0.50;99.90;;;;;;5079599;28;20020;-79
2021/12/21 05:25:33;;;;;;;21.02;7.45;;;0.50;99.90;;;;;;5079415;28;20387;-80
2021/12/21 05:27:58;;;;;;;20.92;8.40;;;0.50;99.90;;;;;;5082014;28;20035;-80
2021/12/21 05:30:26;;;;;;;19.20;7.97;;;0.60;99.90;;;;;;5083174;28;20543;-78
2021/12/21 05:32:55;;;;;;;21.33;8.10;;;0.60;99.90;;;;;;5082375;28;20031;-80
2021/12/21 05:35:22;;;;;;;25.70;8.52;;;0.50;99.90;;;;;;5083376;28;20480;-79
2021/12/21 05:37:51;;;;;;;23.70;8.23;;;0.50;99.90;;;;;;5084340;28;20066;-79
2021/12/21 05:40:18;;;;;;;21.80;8.70;;;0.50;99.90;;;;;;5083976;28;20027;-80
2021/12/21 05:42:46;;;;;;;19.95;8.88;;;0.50;99.90;;;;;;5080959;28;20380;-79
2021/12/21 05:45:15;;;;;;;23.63;9.05;;;0.50;99.90;;;;;;5082171;28;20421;-80
2021/12/21 05:47:41;;;;;;;18.58;8.27;;;0.50;99.90;;;;;;5081632;28;20058;-79
2021/12/21 05:50:12;;;;;;;24.58;8.50;;;0.40;99.90;;;;;;5083680;28;20123;-80
2021/12/21 05:52:38;;;;;;;19.17;8.20;;;0.50;99.90;;;;;;5080189;28;20020;-79
2021/12/21 05:55:05;;;;;;;19.77;8.85;;;0.40;99.90;;;;;;5080652;28;20142;-80
2021/12/21 05:57:31;;;;;;;26.35;8.70;;;0.50;99.90;;;;;;5082071;28;20431;-79
2021/12/21 05:59:56;;;;;;;22.90;8.02;;;0.40;99.90;;;;;;5081528;28;20500;-80
2021/12/21 06:02:22;;;;;;;23.15;8.40;;;0.40;99.90;;;;;;5081912;28;20035;-79
2021/12/21 06:04:48;;;;;;;24.40;8.23;;;0.40;99.90;;;;;;5081399;28;20032;-80
2021/12/21 06:07:14;;;;;;;24.23;8.27;;;0.40;99.90;;;;;;5079483;28;20120;-80
2021/12/21 06:09:41;;;;;;;20.33;8.45;;;0.40;99.90;;;;;;5084148;28;20549;-80
2021/12/21 06:12:15;;;;;;;24.73;8.82;;;0.40;99.90;;;;;;5080128;28;20028;-80
2021/12/21 06:28:02;;;;;;;20.67;8.35;;;0.20;99.90;;;;;;5081115;28;20036;-79
2021/12/21 06:30:28;;;;;;;24.95;9.25;;;0.30;99.90;;;;;;5076115;28;20040;-79
2021/12/21 06:32:54;;;;;;;20.77;8.65;;;0.30;99.90;;;;;;5081165;28;20028;-80
2021/12/21 06:35:20;;;;;;;23.00;8.98;;;0.30;99.90;;;;;;5080302;28;20060;-79
2021/12/21 06:37:46;;;;;;;24.98;9.48;;;0.30;99.90;;;;;;5085204;28;20111;-79
2021/12/21 06:40:12;;;;;;;21.65;8.55;;;0.20;99.90;;;;;;5083638;28;20036;-79
2021/12/21 06:42:40;;;;;;;21.95;8.15;;;0.20;99.90;;;;;;5084495;28;20020;-78
2021/12/21 06:45:14;;;;;;;22.13;9.73;;;0.30;99.90;;;;;;5084827;28;20032;-79
2021/12/21 06:53:17;;;;;;;25.58;9.23;;;0.20;99.90;;;;;;5070161;28;20020;-79
2021/12/21 06:55:42;;;;;;;23.55;9.75;;;0.20;99.90;;;;;;5081874;28;20135;-79
2021/12/21 06:58:08;;;;;;;28.10;10.02;;;0.20;99.90;;;;;;5081155;28;20028;-79
2021/12/21 07:00:34;;;;;;;28.10;9.75;;;0.20;99.90;;;;;;5086821;28;20040;-79
2021/12/21 07:03:00;;;;;;;23.77;9.52;;;0.20;99.90;;;;;;5085471;28;20131;-78
2021/12/21 07:05:26;;;;;;;30.00;10.10;;;0.20;99.90;;;;;;5087416;28;20517;-79
2021/12/21 07:07:52;;;;;;;29.02;10.70;;;0.20;99.90;;;;;;5082470;28;20036;-80
2021/12/21 07:10:23;;;;;;;25.05;9.57;;;0.30;99.90;;;;;;5085787;28;20089;-79
2021/12/21 07:20:31;;;;;;;31.73;10.50;;;0.20;99.90;;;;;;5085417;28;20036;-80
2021/12/21 07:22:57;;;;;;;28.65;10.48;;;0.10;99.90;;;;;;5081693;28;20078;-79
2021/12/21 07:25:25;;;;;;;28.48;10.02;;;0.10;99.90;;;;;;5082491;28;20052;-79
2021/12/21 07:27:52;;;;;;;24.88;10.32;;;0.00;99.90;;;;;;5082576;28;20483;-77
2021/12/21 07:30:18;;;;;;;31.10;10.30;;;0.10;99.90;;;;;;5081662;28;20373;-79
2021/12/21 07:32:43;;;;;;;30.25;8.93;;;0.10;99.90;;;;;;5084627;28;20035;-78
2021/12/21 07:35:09;;;;;;;22.70;9.43;;;0.00;99.90;;;;;;5082807;28;20036;-79
2021/12/21 07:37:35;;;;;;;28.13;9.73;;;0.00;99.90;;;;;;5083619;28;20020;-82
2021/12/21 07:40:05;;;;;;;26.77;8.98;;;0.00;99.90;;;;;;5084725;28;20021;-78
2021/12/21 07:42:31;;;;;;;21.58;8.85;;;0.00;99.90;;;;;;5088302;28;20115;-79
2021/12/21 07:44:57;;;;;;;23.73;9.45;;;0.00;99.90;;;;;;5088640;28;20432;-79
2021/12/21 07:47:23;;;;;;;26.15;8.57;;;0.00;99.90;;;;;;5085386;28;20426;-78
2021/12/21 07:49:49;;;;;;;33.97;10.13;;;0.00;99.90;;;;;;5081911;28;20054;-79
2021/12/21 07:52:15;;;;;;;24.77;9.65;;;0.00;99.90;;;;;;5078479;28;20066;-78
2021/12/21 07:54:41;;;;;;;22.52;9.43;;;-0.10;99.90;;;;;;5083714;28;20075;-79
2021/12/21 07:57:07;;;;;;;27.98;10.45;;;-0.10;99.90;;;;;;5084264;28;21432;-78
2021/12/21 07:59:34;;;;;;;23.35;9.82;;;-0.10;99.90;;;;;;5085215;28;20086;-78
2021/12/21 08:02:00;;;;;;;22.25;9.55;;;0.00;99.90;;;;;;5082063;28;20029;-77
2021/12/21 08:04:28;;;;;;;28.42;8.95;;;-0.10;99.90;;;;;;5079495;28;20033;-79
2021/12/21 08:06:56;;;;;;;31.45;9.18;;;0.00;99.90;;;;;;5081940;28;20589;-79
2021/12/21 08:09:25;;;;;;;25.58;9.38;;;0.00;99.90;;;;;;5084323;28;20035;-80
2021/12/21 08:14:35;;;;;;;26.58;8.82;;;-0.10;99.90;;;;;;5084977;28;20047;-79
2021/12/21 08:17:01;;;;;;;24.25;10.02;;;-0.10;99.90;;;;;;5080781;28;20461;-79
2021/12/21 08:19:26;;;;;;;28.88;8.50;;;-0.10;99.90;;;;;;5084303;28;20062;-79
2021/12/21 08:21:52;;;;;;;27.48;9.35;;;-0.10;99.90;;;;;;5085882;28;20027;-80
2021/12/21 08:24:18;;;;;;;26.13;10.38;;;-0.10;99.90;;;;;;5079799;28;20087;-78
2021/12/21 08:26:43;;;;;;;20.55;9.73;;;0.00;99.90;;;;;;5081801;28;20422;-78
2021/12/21 08:29:09;;;;;;;26.15;10.18;;;0.00;99.90;;;;;;5080339;28;20483;-81
2021/12/21 08:31:35;;;;;;;25.50;10.27;;;0.00;99.90;;;;;;5085090;28;20084;-79
2021/12/21 08:34:00;;;;;;;23.33;9.43;;;0.00;99.90;;;;;;5080932;28;20032;-78
2021/12/21 08:36:26;;;;;;;28.92;10.35;;;0.10;99.90;;;;;;5082478;28;20078;-79
2021/12/21 08:38:52;;;;;;;23.00;10.02;;;0.10;99.90;;;;;;5080667;28;20025;-78
2021/12/21 08:41:20;;;;;;;24.98;9.05;;;0.00;99.90;;;;;;5080326;28;20035;-79
2021/12/21 08:43:46;;;;;;;26.73;9.77;;;0.10;99.90;;;;;;5086905;28;20025;-79
2021/12/21 08:46:11;;;;;;;28.85;10.88;;;0.10;99.90;;;;;;5079849;28;20383;-81
2021/12/21 08:48:37;;;;;;;30.45;10.48;;;0.10;99.90;;;;;;5085053;28;20103;-81
2021/12/21 08:51:04;;;;;;;25.67;10.10;;;0.10;99.90;;;;;;5081101;28;20062;-79
2021/12/21 08:53:30;;;;;;;26.17;11.32;;;0.10;99.90;;;;;;5084360;28;20024;-78
2021/12/21 08:55:55;;;;;;;28.45;10.18;;;0.10;99.90;;;;;;5078546;28;20024;-78
2021/12/21 08:58:21;;;;;;;30.27;11.30;;;0.10;99.90;;;;;;5083112;28;20430;-79
2021/12/21 09:00:48;;;;;;;29.48;11.50;;;0.10;99.90;;;;;;5079219;28;20023;-78
2021/12/21 09:03:14;;;;;;;29.08;11.10;;;0.10;99.90;;;;;;5082383;28;20081;-80
2021/12/21 09:05:40;;;;;;;32.22;11.75;;;0.00;99.90;;;;;;5080839;28;20032;-80
2021/12/21 09:08:08;;;;;;;27.33;11.25;;;0.10;99.90;;;;;;5079323;28;20028;-81
2021/12/21 09:10:35;;;;;;;34.63;12.50;;;0.10;99.90;;;;;;5081190;28;20558;-80
2021/12/21 09:13:01;;;;;;;29.15;11.63;;;0.10;99.90;;;;;;5080239;28;20492;-80
2021/12/21 09:15:27;;;;;;;27.70;12.45;;;0.10;99.90;;;;;;5079062;28;20029;-80
2021/12/21 09:17:54;;;;;;;27.70;11.85;;;0.20;99.90;;;;;;5081884;28;20059;-80
2021/12/21 09:20:23;;;;;;;31.17;12.60;;;0.30;99.90;;;;;;5080701;28;20476;-80
2021/12/21 09:22:50;;;;;;;31.30;12.23;;;0.30;99.90;;;;;;5084228;28;20492;-78
2021/12/21 09:25:17;;;;;;;28.42;12.02;;;0.30;99.90;;;;;;5086114;28;20036;-81
2021/12/21 09:27:43;;;;;;;24.63;10.88;;;0.30;99.90;;;;;;5085001;28;20395;-79
2021/12/21 09:30:12;;;;;;;26.30;11.07;;;0.30;99.90;;;;;;5079340;28;20431;-74
2021/12/21 09:32:40;;;;;;;24.52;11.05;;;0.30;99.90;;;;;;5079313;28;20032;-79
2021/12/21 09:35:06;;;;;;;28.17;11.55;;;0.40;99.90;;;;;;5085133;28;20035;-79
2021/12/21 09:37:32;;;;;;;26.65;10.80;;;0.40;99.90;;;;;;5081368;28;20074;-80
2021/12/21 09:39:59;;;;;;;26.85;11.93;;;0.40;99.90;;;;;;5083303;28;20016;-80
2021/12/21 09:42:30;;;;;;;27.50;11.75;;;0.60;99.90;;;;;;5083056;28;20115;-81
2021/12/21 09:44:57;;;;;;;32.75;12.85;;;0.60;99.90;;;;;;5078499;28;20157;-80
2021/12/21 09:47:24;;;;;;;26.83;11.57;;;0.80;99.90;;;;;;5082025;28;20050;-80
2021/12/21 09:49:50;;;;;;;32.35;12.38;;;0.80;99.90;;;;;;5084722;28;20121;-80
2021/12/21 09:52:22;;;;;;;30.67;12.75;;;0.80;99.90;;;;;;5083304;28;20060;-80
2021/12/21 09:54:49;;;;;;;30.98;12.32;;;0.90;99.90;;;;;;5078668;28;20104;-80
2021/12/21 09:57:17;;;;;;;33.67;12.73;;;1.00;99.90;;;;;;5082120;28;20043;-80
2021/12/21 09:59:45;;;;;;;28.50;12.88;;;1.00;99.90;;;;;;5082230;28;20095;-80
2021/12/21 10:02:11;;;;;;;25.40;11.55;;;1.10;99.90;;;;;;5079998;28;20020;-79
2021/12/21 10:04:49;;;;;;;28.50;13.60;;;1.20;99.90;;;;;;5079149;28;20035;-79
2021/12/21 10:07:16;;;;;;;31.05;12.82;;;1.20;99.90;;;;;;5081797;28;20024;-79
2021/12/21 10:09:43;;;;;;;26.05;13.85;;;1.30;99.90;;;;;;5083018;28;20039;-79
2021/12/21 10:12:14;;;;;;;28.40;12.20;;;1.20;99.90;;;;;;5083054;28;20025;-78
2021/12/21 10:14:40;;;;;;;30.98;14.63;;;1.30;99.90;;;;;;5090001;28;20024;-78
2021/12/21 10:17:08;;;;;;;32.67;13.43;;;1.30;99.90;;;;;;5088351;28;20111;-78
2021/12/21 10:19:35;;;;;;;28.33;12.20;;;1.40;99.90;;;;;;5079233;28;20055;-78
2021/12/21 10:22:09;;;;;;;31.55;13.27;;;1.40;99.90;;;;;;5079738;28;20032;-78
2021/12/21 10:24:47;;;;;;;30.85;12.90;;;1.50;99.90;;;;;;5084861;28;20738;-78
2021/12/21 10:27:14;;;;;;;30.08;12.32;;;1.50;99.90;;;;;;5082074;28;20027;-78
2021/12/21 10:29:45;;;;;;;30.08;13.05;;;1.60;99.90;;;;;;5082272;28;20390;-78
2021/12/21 10:32:19;;;;;;;26.97;12.20;;;1.60;99.90;;;;;;5078679;28;20415;-78
2021/12/21 10:35:21;;;;;;;24.85;13.40;;;1.60;99.90;;;;;;5082552;28;20028;-77
2021/12/21 10:37:51;;;;;;;30.05;13.00;;;1.60;99.90;;;;;;5070082;28;20476;-77
2021/12/21 10:40:27;;;;;;;33.75;15.20;;;1.70;99.90;;;;;;5082356;28;20032;-77
2021/12/21 10:42:58;;;;;;;30.17;15.30;;;1.70;99.90;;;;;;5081268;28;20025;-77
2021/12/21 10:45:29;;;;;;;30.05;15.65;;;1.70;99.90;;;;;;5077640;28;20106;-77
2021/12/21 10:47:56;;;;;;;25.60;14.02;;;1.80;99.90;;;;;;5080251;28;20021;-77
2021/12/21 10:50:22;;;;;;;29.60;16.35;;;1.80;99.90;;;;;;5078323;28;20989;-77
2021/12/21 10:52:51;;;;;;;29.48;15.57;;;1.80;99.90;;;;;;5080874;28;20040;-75
2021/12/21 10:55:23;;;;;;;30.85;15.60;;;1.80;99.90;;;;;;5080857;28;20107;-77
2021/12/21 10:57:48;;;;;;;32.10;15.70;;;1.80;99.90;;;;;;5067605;28;20070;-77
2021/12/21 11:00:16;;;;;;;29.85;15.93;;;1.80;99.90;;;;;;5072105;28;20291;-77
2021/12/21 11:02:44;;;;;;;25.08;14.00;;;1.80;99.90;;;;;;5083240;28;20024;-77
2021/12/21 11:05:15;;;;;;;27.60;15.07;;;1.90;99.90;;;;;;5086404;28;20035;-77
2021/12/21 11:07:47;;;;;;;30.27;15.60;;;1.90;99.90;;;;;;5078048;28;20029;-77
2021/12/21 11:10:26;;;;;;;26.25;15.00;;;2.00;99.90;;;;;;5085135;28;20046;-77
2021/12/21 11:13:00;;;;;;;26.52;13.93;;;2.00;99.90;;;;;;5079349;28;20114;-78
2021/12/21 11:15:31;;;;;;;25.60;14.50;;;2.00;99.90;;;;;;5089020;28;20063;-78
2021/12/21 11:18:03;;;;;;;24.92;12.05;;;2.10;99.90;;;;;;5079606;28;20444;-77
2021/12/21 11:20:29;;;;;;;25.80;11.68;;;2.10;99.90;;;;;;5080909;28;20024;-77
2021/12/21 11:22:55;;;;;;;23.35;11.38;;;2.10;99.90;;;;;;5081772;28;20358;-77
2021/12/21 11:25:22;;;;;;;20.92;11.38;;;2.10;99.90;;;;;;5081076;28;20428;-77
2021/12/21 11:27:49;;;;;;;27.98;13.48;;;2.20;99.90;;;;;;5079452;28;20028;-77
2021/12/21 11:30:21;;;;;;;21.58;12.73;;;2.20;99.90;;;;;;5083818;28;20089;-78
2021/12/21 11:32:50;;;;;;;16.92;9.13;;;2.30;99.90;;;;;;5083069;28;20354;-77
2021/12/21 11:37:48;;;;;;;24.90;11.23;;;2.40;99.90;;;;;;5083356;28;20029;-77
2021/12/21 11:40:17;;;;;;;24.98;10.80;;;2.40;99.90;;;;;;5089134;28;20415;-77
2021/12/21 11:42:50;;;;;;;18.55;10.77;;;2.40;99.90;;;;;;5091796;28;20098;-77
2021/12/21 11:45:32;;;;;;;;;;;2.50;99.90;;;;;;5086623;28;20099;-77
2021/12/21 11:48:09;;;;;;;18.90;10.82;;;2.50;99.90;;;;;;5079701;28;19908;-77
2021/12/21 11:50:36;;;;;;;22.13;12.20;;;2.60;99.90;;;;;;5082804;28;20040;-77
2021/12/21 11:53:08;;;;;;;24.27;12.63;;;2.70;99.90;;;;;;5083817;28;20023;-77
2021/12/21 11:55:37;;;;;;;32.72;14.35;;;2.70;99.90;;;;;;5085007;28;20472;-77
2021/12/21 11:58:21;;;;;;;18.33;11.50;;;2.70;99.90;;;;;;5081886;28;20511;-78
2021/12/21 12:00:49;;;;;;;22.02;13.00;;;2.80;99.90;;;;;;5078943;28;20556;-78
2021/12/21 12:03:21;;;;;;;23.92;13.75;;;2.80;99.90;;;;;;5081899;28;20054;-77
2021/12/21 12:06:07;;;;;;;36.53;11.10;;;2.80;99.90;;;;;;5084990;28;20439;-77
2021/12/21 12:08:43;;;;;;;18.20;9.95;;;2.70;99.90;;;;;;5081273;28;20457;-77
2021/12/21 12:11:28;;;;;;;23.42;11.88;;;2.70;99.90;;;;;;5080638;28;20118;-77
2021/12/21 12:14:10;;;;;;;22.15;12.27;;;2.70;99.90;;;;;;5081602;28;20028;-77
2021/12/21 12:16:43;;;;;;;25.90;13.85;;;2.80;99.90;;;;;;5080920;28;20028;-77
2021/12/21 12:19:17;;;;;;;20.55;10.23;;;2.80;99.90;;;;;;5082609;28;20099;-77
2021/12/21 12:22:00;;;;;;;21.52;11.60;;;2.80;99.90;;;;;;5083544;28;20473;-77
2021/12/21 12:24:38;;;;;;;23.35;11.15;;;2.90;99.90;;;;;;5080435;28;20032;-76
2021/12/21 12:27:14;;;;;;;17.27;10.43;;;2.90;99.90;;;;;;5081352;28;20063;-76
2021/12/21 12:30:10;;;;;;;21.80;10.68;;;3.00;99.90;;;;;;5088601;28;20036;-76
2021/12/21 12:32:46;;;;;;;18.83;10.07;;;3.00;99.90;;;;;;5082684;28;20028;-77
2021/12/21 12:35:18;;;;;;;23.63;10.88;;;3.00;99.90;;;;;;5085183;28;20506;-76
2021/12/21 12:38:02;;;;;;;21.02;9.90;;;3.00;99.90;;;;;;5081338;28;20052;-76
2021/12/21 12:40:50;;;;;;;15.95;7.70;;;3.00;99.90;;;;;;5081805;28;20017;-76
2021/12/21 12:43:30;;;;;;;16.25;7.68;;;2.90;99.90;;;;;;5076576;28;20026;-76
2021/12/21 12:46:05;;;;;;;14.98;7.93;;;3.10;99.90;;;;;;5080237;28;20028;-77
2021/12/21 12:48:38;;;;;;;14.93;8.45;;;3.10;99.90;;;;;;5082097;28;20091;-76
2021/12/21 12:51:06;;;;;;;13.77;7.50;;;3.20;99.90;;;;;;5079131;28;20396;-76
2021/12/21 12:53:44;;;;;;;19.85;7.53;;;3.20;99.90;;;;;;5084451;28;20023;-77
2021/12/21 12:56:14;;;;;;;14.23;7.63;;;3.10;99.90;;;;;;5082501;28;20460;-77
2021/12/21 12:58:50;;;;;;;14.65;7.47;;;3.20;99.90;;;;;;5079444;28;20137;-77
2021/12/21 13:01:23;;;;;;;11.60;7.30;;;3.20;99.90;;;;;;5079680;28;20122;-77
2021/12/21 13:03:50;;;;;;;14.15;7.38;;;3.30;99.90;;;;;;5080096;28;20033;-77
2021/12/21 13:06:18;;;;;;;18.75;7.43;;;3.30;99.90;;;;;;5080693;28;20032;-78
2021/12/21 13:08:45;;;;;;;18.08;8.18;;;3.40;99.90;;;;;;5082541;28;20135;-77
2021/12/21 13:11:13;;;;;;;11.93;7.40;;;3.40;99.90;;;;;;5081205;28;20094;-77
2021/12/21 13:13:47;;;;;;;17.77;7.50;;;3.40;99.90;;;;;;5084438;28;20013;-77
2021/12/21 13:16:15;;;;;;;18.00;6.70;;;3.30;99.90;;;;;;5085344;28;20047;-76
2021/12/21 13:19:02;;;;;;;16.23;6.95;;;3.40;99.90;;;;;;5080734;28;20036;-77
2021/12/21 13:21:35;;;;;;;13.10;6.40;;;3.50;99.90;;;;;;5089220;28;20020;-77
2021/12/21 13:24:16;;;;;;;19.30;7.00;;;3.50;99.90;;;;;;5083168;28;20032;-77
2021/12/21 13:26:47;;;;;;;11.85;6.68;;;3.30;99.90;;;;;;5086483;28;20487;-77
2021/12/21 13:29:16;;;;;;;10.98;5.90;;;3.30;99.90;;;;;;5079716;28;20032;-78
2021/12/21 13:31:43;;;;;;;9.05;6.32;;;3.40;99.90;;;;;;5081318;28;20503;-78
2021/12/21 13:34:09;;;;;;;8.25;5.78;;;3.40;99.90;;;;;;5084713;28;20448;-78
2021/12/21 13:36:37;;;;;;;14.60;6.25;;;3.40;99.90;;;;;;5079526;28;20477;-77
2021/12/21 13:39:26;;;;;;;11.15;6.20;;;3.40;99.90;;;;;;5084070;28;20028;-77
2021/12/21 13:41:54;;;;;;;13.57;6.75;;;3.40;99.90;;;;;;5078707;28;20111;-76
2021/12/21 13:44:32;;;;;;;15.05;7.20;;;3.50;99.90;;;;;;5082209;28;20387;-77
2021/12/21 13:47:00;;;;;;;10.32;5.18;;;3.40;99.90;;;;;;5081028;28;20031;-76
2021/12/21 13:49:26;;;;;;;13.32;6.03;;;3.50;99.90;;;;;;5088863;28;20024;-76
2021/12/21 13:51:58;;;;;;;10.32;6.22;;;3.50;99.90;;;;;;5087575;28;20035;-76
2021/12/21 13:54:27;;;;;;;12.65;7.10;;;3.40;99.90;;;;;;5090371;28;20020;-77
2021/12/21 13:56:54;;;;;;;11.80;6.05;;;3.40;99.90;;;;;;5084943;28;20115;-78
2021/12/21 13:59:21;;;;;;;14.77;7.20;;;3.50;99.90;;;;;;5083304;28;20188;-76